Voyager — C6WC2 — position and weather

sailwx.info

Track history (hours):
 
Tides and Currents Weather Stations Pressure Air Temp Water Temp Dewpoint Dewpoint Depression Visibility Wind Speed Wind Dir Waves Ship Positions

Voyager

Last reported at 2015-Sep-04 00:31 UTC. Time now 2015-Sep-04 21:02 UTC.
Position N 35°60' E 015°22'.

Length 151 m; draft 5.9 m.

Type: Passenger vessel. MMSI: 309695000.

Date/timePositionNaut miles runAvg speedWind from/ knotsBaromVisibWave heightAir tempDewpointWater temp
2015-Sep-04 00:31N 35°60' E 015°22'1313.3
2015-Sep-03 23:33N 35°59' E 015°06'1413.5
2015-Sep-03 22:33N 35°59' E 014°49'1413.7
2015-Sep-03 21:33N 35°55' E 014°33'1 0.0
2015-Sep-03 04:33N 35°55' E 014°33'9 9.0
2015-Sep-03 03:33N 36°02' E 014°39'11 9.4
2015-Sep-03 02:24N 36°11' E 014°48'8 9.5
2015-Sep-03 01:33N 36°17' E 014°54'39 9.7
2015-Sep-02 21:33N 36°49' E 015°21'1010.5
2015-Sep-02 20:33N 36°60' E 015°24'7 3.2
2015-Sep-02 18:31N 37°03' E 015°17'0 0.0
2015-Sep-02 17:28N 37°03' E 015°17'0 0.0
2015-Sep-02 16:22N 37°03' E 015°17'0 0.0
2015-Sep-02 14:28N 37°03' E 015°17'0 0.0
2015-Sep-02 13:31N 37°03' E 015°17'22 2.2
2015-Sep-02 03:30N 36°42' E 015°14'2512.7
2015-Sep-02 01:29N 36°38' E 014°42'3015.4
2015-Sep-01 23:32N 36°51' E 014°08'1715.2
2015-Sep-01 22:25N 36°59' E 013°50'1415.2
2015-Sep-01 21:29N 37°05' E 013°34'1415.1
2015-Sep-01 20:33N 37°12' E 013°18'1515.2
2015-Sep-01 19:33N 37°19' E 013°02'1714.8
2015-Sep-01 18:26N 37°27' E 012°43'1614.4
2015-Sep-01 17:20N 37°36' E 012°27'1215.2
2015-Sep-01 16:33N 37°43' E 012°15'2512.3
2015-Sep-01 14:33N 38°05' E 012°02'23 2.7
2015-Sep-01 06:15N 38°01' E 012°30'1 2.1
2015-Sep-01 05:33N 38°00' E 012°29'1313.2
2015-Sep-01 04:33N 38°08' E 012°15'1412.1
2015-Sep-01 03:21N 38°14' E 011°59'1211.2
2015-Sep-01 02:20N 38°18' E 011°45'1011.7
2015-Sep-01 01:27N 38°22' E 011°32'1011.7
2015-Sep-01 00:33N 38°26' E 011°20'1211.6
2015-Aug-31 23:33N 38°30' E 011°06'1211.7
2015-Aug-31 22:33N 38°34' E 010°52'1211.8
2015-Aug-31 21:33N 38°38' E 010°38'1211.5
2015-Aug-31 20:32N 38°43' E 010°24'2411.8
2015-Aug-31 18:31N 38°51' E 009°56'2311.8
2015-Aug-31 16:33N 38°60' E 009°28'1212.2
2015-Aug-31 15:33N 39°07' E 009°15'9 8.9
2015-Aug-31 14:33N 39°12' E 009°06'0 0.0
2015-Aug-31 13:33N 39°12' E 009°06'0 0.0
2015-Aug-31 12:33N 39°12' E 009°06'0 0.0
2015-Aug-31 11:33N 39°12' E 009°06'0 0.0
2015-Aug-31 09:33N 39°12' E 009°06'0 0.0
2015-Aug-31 08:33N 39°12' E 009°06'0 0.0
2015-Aug-31 07:33N 39°12' E 009°06'0 0.0
2015-Aug-31 06:33N 39°12' E 009°06'0 0.0
2015-Aug-31 05:33N 39°12' E 009°06'5 5.4
2015-Aug-31 04:33N 39°07' E 009°08'9 8.8
2015-Aug-31 03:32N 38°59' E 009°05'10 9.6
2015-Aug-31 02:32N 38°52' E 008°56'9 9.1
2015-Aug-31 01:33N 38°47' E 008°47'21111.1
2015-Aug-30 06:26N 41°42' E 006°12'10011.2
2015-Aug-29 21:33N 43°11' E 005°10'8 8.5
2015-Aug-29 20:33N 43°19' E 005°14'5 2.3
2015-Aug-29 18:23N 43°21' E 005°20'0 0.0
2015-Aug-29 17:23N 43°21' E 005°20'0 0.0
2015-Aug-29 16:29N 43°21' E 005°20'0 0.0
2015-Aug-29 15:29N 43°21' E 005°20'0 0.0
2015-Aug-29 14:29N 43°21' E 005°20'0 0.0
2015-Aug-29 13:29N 43°21' E 005°20'0 0.0
2015-Aug-29 12:29N 43°21' E 005°20'0 0.0
2015-Aug-29 11:29N 43°21' E 005°20'0 0.0
2015-Aug-29 09:33N 43°21' E 005°20'0 0.0
2015-Aug-29 08:33N 43°21' E 005°20'0 0.0
2015-Aug-29 07:33N 43°21' E 005°20'4 3.7
2015-Aug-29 06:33N 43°19' E 005°15'1010.0
2015-Aug-29 05:33N 43°09' E 005°12'1312.8
2015-Aug-29 04:31N 43°04' E 005°29'1914.4
2015-Aug-29 03:13N 42°57' E 005°52'1815.8
2015-Aug-29 02:04N 42°50' E 006°15'915.8
2015-Aug-29 01:28N 42°52' E 006°28'1616.9
2015-Aug-29 00:33N 42°56' E 006°48'1616.6
2015-Aug-28 23:33N 43°00' E 007°10'1616.4
2015-Aug-28 22:33N 43°04' E 007°32'1616.3
2015-Aug-28 21:33N 43°09' E 007°53'1616.2
2015-Aug-28 20:33N 43°13' E 008°15'1716.3
2015-Aug-28 19:30N 43°17' E 008°38'1516.0
2015-Aug-28 18:33N 43°20' E 008°58'1615.8
2015-Aug-28 17:33N 43°24' E 009°19'1616.0
2015-Aug-28 16:33N 43°28' E 009°41'1716.1
2015-Aug-28 15:30N 43°31' E 010°04'1110.9
2015-Aug-28 14:31N 43°33' E 010°18'0 0.0
2015-Aug-28 13:31N 43°33' E 010°18'0 0.0
2015-Aug-28 12:13N 43°33' E 010°18'0 0.0
2015-Aug-28 11:31N 43°33' E 010°18'0 0.0
2015-Aug-28 09:16N 43°33' E 010°18'0 0.0
2015-Aug-28 08:34N 43°33' E 010°18'103 3.0
2015-Aug-26 22:12N 41°50' E 010°32'610.0
2015-Aug-26 21:33N 41°49' E 010°24'344 8.2
2015-Aug-25 03:33N 39°11' E 003°42'1414.3
2015-Aug-25 02:33N 39°05' E 003°25'1414.1
2015-Aug-25 01:33N 39°03' E 003°07'1414.3
2015-Aug-25 00:33N 39°03' E 002°48'  
Track history (hours):
 
Tides and Currents Weather Stations Pressure Air Temp Water Temp Dewpoint Dewpoint Depression Visibility Wind Speed Wind Dir Waves Ship Positions

Voyager

Last reported at 2015-Sep-04 00:31 UTC. Time now 2015-Sep-04 21:02 UTC.
Position N 35°60' E 015°22'.

Length 151 m; draft 5.9 m.

Type: Passenger vessel. MMSI: 309695000.

Date/timePositionNaut miles runAvg speedWind from/ knotsBaromVisibWave heightAir tempDewpointWater temp
2015-Sep-04 00:31N 35°60' E 015°22'1313.3
2015-Sep-03 23:33N 35°59' E 015°06'1413.5
2015-Sep-03 22:33N 35°59' E 014°49'1413.7
2015-Sep-03 21:33N 35°55' E 014°33'1 0.0
2015-Sep-03 04:33N 35°55' E 014°33'9 9.0
2015-Sep-03 03:33N 36°02' E 014°39'11 9.4
2015-Sep-03 02:24N 36°11' E 014°48'8 9.5
2015-Sep-03 01:33N 36°17' E 014°54'39 9.7
2015-Sep-02 21:33N 36°49' E 015°21'1010.5
2015-Sep-02 20:33N 36°60' E 015°24'7 3.2
2015-Sep-02 18:31N 37°03' E 015°17'0 0.0
2015-Sep-02 17:28N 37°03' E 015°17'0 0.0
2015-Sep-02 16:22N 37°03' E 015°17'0 0.0
2015-Sep-02 14:28N 37°03' E 015°17'0 0.0
2015-Sep-02 13:31N 37°03' E 015°17'22 2.2
2015-Sep-02 03:30N 36°42' E 015°14'2512.7
2015-Sep-02 01:29N 36°38' E 014°42'3015.4
2015-Sep-01 23:32N 36°51' E 014°08'1715.2
2015-Sep-01 22:25N 36°59' E 013°50'1415.2
2015-Sep-01 21:29N 37°05' E 013°34'1415.1
2015-Sep-01 20:33N 37°12' E 013°18'1515.2
2015-Sep-01 19:33N 37°19' E 013°02'1714.8
2015-Sep-01 18:26N 37°27' E 012°43'1614.4
2015-Sep-01 17:20N 37°36' E 012°27'1215.2
2015-Sep-01 16:33N 37°43' E 012°15'2512.3
2015-Sep-01 14:33N 38°05' E 012°02'23 2.7
2015-Sep-01 06:15N 38°01' E 012°30'1 2.1
2015-Sep-01 05:33N 38°00' E 012°29'1313.2
2015-Sep-01 04:33N 38°08' E 012°15'1412.1
2015-Sep-01 03:21N 38°14' E 011°59'1211.2
2015-Sep-01 02:20N 38°18' E 011°45'1011.7
2015-Sep-01 01:27N 38°22' E 011°32'1011.7
2015-Sep-01 00:33N 38°26' E 011°20'1211.6
2015-Aug-31 23:33N 38°30' E 011°06'1211.7
2015-Aug-31 22:33N 38°34' E 010°52'1211.8
2015-Aug-31 21:33N 38°38' E 010°38'1211.5
2015-Aug-31 20:32N 38°43' E 010°24'2411.8
2015-Aug-31 18:31N 38°51' E 009°56'2311.8
2015-Aug-31 16:33N 38°60' E 009°28'1212.2
2015-Aug-31 15:33N 39°07' E 009°15'9 8.9
2015-Aug-31 14:33N 39°12' E 009°06'0 0.0
2015-Aug-31 13:33N 39°12' E 009°06'0 0.0
2015-Aug-31 12:33N 39°12' E 009°06'0 0.0
2015-Aug-31 11:33N 39°12' E 009°06'0 0.0
2015-Aug-31 09:33N 39°12' E 009°06'0 0.0
2015-Aug-31 08:33N 39°12' E 009°06'0 0.0
2015-Aug-31 07:33N 39°12' E 009°06'0 0.0
2015-Aug-31 06:33N 39°12' E 009°06'0 0.0
2015-Aug-31 05:33N 39°12' E 009°06'5 5.4
2015-Aug-31 04:33N 39°07' E 009°08'9 8.8
2015-Aug-31 03:32N 38°59' E 009°05'10 9.6
2015-Aug-31 02:32N 38°52' E 008°56'9 9.1
2015-Aug-31 01:33N 38°47' E 008°47'21111.1
2015-Aug-30 06:26N 41°42' E 006°12'10011.2
2015-Aug-29 21:33N 43°11' E 005°10'8 8.5
2015-Aug-29 20:33N 43°19' E 005°14'5 2.3
2015-Aug-29 18:23N 43°21' E 005°20'0 0.0
2015-Aug-29 17:23N 43°21' E 005°20'0 0.0
2015-Aug-29 16:29N 43°21' E 005°20'0 0.0
2015-Aug-29 15:29N 43°21' E 005°20'0 0.0
2015-Aug-29 14:29N 43°21' E 005°20'0 0.0
2015-Aug-29 13:29N 43°21' E 005°20'0 0.0
2015-Aug-29 12:29N 43°21' E 005°20'0 0.0
2015-Aug-29 11:29N 43°21' E 005°20'0 0.0
2015-Aug-29 09:33N 43°21' E 005°20'0 0.0
2015-Aug-29 08:33N 43°21' E 005°20'0 0.0
2015-Aug-29 07:33N 43°21' E 005°20'4 3.7
2015-Aug-29 06:33N 43°19' E 005°15'1010.0
2015-Aug-29 05:33N 43°09' E 005°12'1312.8
2015-Aug-29 04:31N 43°04' E 005°29'1914.4
2015-Aug-29 03:13N 42°57' E 005°52'1815.8
2015-Aug-29 02:04N 42°50' E 006°15'915.8
2015-Aug-29 01:28N 42°52' E 006°28'1616.9
2015-Aug-29 00:33N 42°56' E 006°48'1616.6
2015-Aug-28 23:33N 43°00' E 007°10'1616.4
2015-Aug-28 22:33N 43°04' E 007°32'1616.3
2015-Aug-28 21:33N 43°09' E 007°53'1616.2
2015-Aug-28 20:33N 43°13' E 008°15'1716.3
2015-Aug-28 19:30N 43°17' E 008°38'1516.0
2015-Aug-28 18:33N 43°20' E 008°58'1615.8
2015-Aug-28 17:33N 43°24' E 009°19'1616.0
2015-Aug-28 16:33N 43°28' E 009°41'1716.1
2015-Aug-28 15:30N 43°31' E 010°04'1110.9
2015-Aug-28 14:31N 43°33' E 010°18'0 0.0
2015-Aug-28 13:31N 43°33' E 010°18'0 0.0
2015-Aug-28 12:13N 43°33' E 010°18'0 0.0
2015-Aug-28 11:31N 43°33' E 010°18'0 0.0
2015-Aug-28 09:16N 43°33' E 010°18'0 0.0
2015-Aug-28 08:34N 43°33' E 010°18'103 3.0
2015-Aug-26 22:12N 41°50' E 010°32'610.0
2015-Aug-26 21:33N 41°49' E 010°24'344 8.2
2015-Aug-25 03:33N 39°11' E 003°42'1414.3
2015-Aug-25 02:33N 39°05' E 003°25'1414.1
2015-Aug-25 01:33N 39°03' E 003°07'1414.3
2015-Aug-25 00:33N 39°03' E 002°48'  

Dump ship's entire track history